createdAt,value
2017-09-09T00:00:49.989Z,14.4
2017-09-09T00:01:51.500Z,14.4
2017-09-09T00:02:52.946Z,14.4
2017-09-09T00:03:54.656Z,14.4
2017-09-09T00:04:56.092Z,14.4
2017-09-09T00:05:57.822Z,14.3
2017-09-09T00:06:59.215Z,14.3
2017-09-09T00:08:00.731Z,14.3
2017-09-09T00:09:02.176Z,14.2
2017-09-09T00:10:03.868Z,14.4
2017-09-09T00:11:05.299Z,14.3
2017-09-09T00:12:06.758Z,14.2
2017-09-09T00:13:08.194Z,14.3
2017-09-09T00:14:09.669Z,14.3
2017-09-09T00:15:11.076Z,14.3
2017-09-09T00:16:12.518Z,14.3
2017-09-09T00:17:13.954Z,14.3
2017-09-09T00:18:15.404Z,14.3
2017-09-09T00:19:16.857Z,14.2
2017-09-09T00:20:18.286Z,14.3
2017-09-09T00:21:19.725Z,14.3
2017-09-09T00:22:21.209Z,14.3
2017-09-09T00:23:22.651Z,14.3
2017-09-09T00:24:24.353Z,14.3
2017-09-09T00:25:25.775Z,14.2
2017-09-09T00:26:27.273Z,14.2
2017-09-09T00:27:28.703Z,14.3
2017-09-09T00:28:30.486Z,14.3
2017-09-09T00:29:31.962Z,14.3
2017-09-09T00:30:33.656Z,14.4
2017-09-09T00:31:35.090Z,14.3
2017-09-09T00:32:36.806Z,14.3
2017-09-09T00:33:38.249Z,14.3
2017-09-09T00:34:39.669Z,14.3
2017-09-09T00:35:41.083Z,14.3
2017-09-09T00:36:42.558Z,14.3
2017-09-09T00:37:43.992Z,14.3
2017-09-09T00:38:45.456Z,14.2
2017-09-09T00:39:46.862Z,14.2
2017-09-09T00:40:48.335Z,14.2
2017-09-09T00:41:49.786Z,14.3
2017-09-09T00:42:51.531Z,14.2
2017-09-09T00:43:52.947Z,14.3
2017-09-09T00:44:54.380Z,14.3
2017-09-09T00:45:55.871Z,14.4
2017-09-09T00:46:57.599Z,14.4
2017-09-09T00:47:59.035Z,14.3
2017-09-09T00:49:00.818Z,14.2
2017-09-09T00:50:02.306Z,14.4
2017-09-09T00:51:04.015Z,14.4
2017-09-09T00:52:05.424Z,14.4
2017-09-09T00:53:07.331Z,14.4
2017-09-09T00:54:08.987Z,14.3
2017-09-09T00:55:10.815Z,14.3
2017-09-09T00:56:12.202Z,14.3
2017-09-09T00:57:13.816Z,14.4
2017-09-09T00:58:15.305Z,14.4
2017-09-09T00:59:17.033Z,14.3
2017-09-09T01:00:18.456Z,14.4
2017-09-09T01:01:20.186Z,14.4
2017-09-09T01:02:21.612Z,14.4
2017-09-09T01:03:23.067Z,14.4
2017-09-09T01:04:24.495Z,14.4
2017-09-09T01:05:25.962Z,14.4
2017-09-09T01:06:27.391Z,14.4
2017-09-09T01:07:28.809Z,14.3
2017-09-09T01:08:30.242Z,14.3
2017-09-09T01:09:31.732Z,14.4
2017-09-09T01:10:33.144Z,14.4
2017-09-09T01:11:34.605Z,14.3
2017-09-09T01:12:36.035Z,14.3
2017-09-09T01:13:37.482Z,14.3
2017-09-09T01:14:38.932Z,14.3
2017-09-09T01:15:40.662Z,14.4
2017-09-09T01:16:42.077Z,14.4
2017-09-09T01:17:43.605Z,14.4
2017-09-09T01:18:45.023Z,14.4
2017-09-09T01:19:46.754Z,14.3
2017-09-09T01:20:48.209Z,14.4
2017-09-09T01:21:49.915Z,14.2
2017-09-09T01:22:51.319Z,14.3
2017-09-09T01:23:52.811Z,14.3
2017-09-09T01:24:54.226Z,14.2
2017-09-09T01:25:55.670Z,14.3
2017-09-09T01:26:57.101Z,14.3
2017-09-09T01:27:58.562Z,14.2
2017-09-09T01:28:59.974Z,14.2
2017-09-09T01:30:01.445Z,14.2
2017-09-09T01:31:02.841Z,14.2
2017-09-09T01:32:04.448Z,14.1
2017-09-09T01:33:05.881Z,14.1
2017-09-09T01:34:07.524Z,14.1
2017-09-09T01:35:08.969Z,14.1
2017-09-09T01:36:10.705Z,14.0
2017-09-09T01:37:12.118Z,14.0
2017-09-09T01:38:13.574Z,14.0
2017-09-09T01:39:14.996Z,14.0
2017-09-09T01:40:16.439Z,14.0
2017-09-09T01:41:17.856Z,14.0
2017-09-09T01:42:19.345Z,14.0
2017-09-09T01:43:20.788Z,13.9
2017-09-09T01:44:22.243Z,13.9
2017-09-09T01:45:23.654Z,13.9
2017-09-09T01:46:25.119Z,13.9
2017-09-09T01:47:26.567Z,13.8
2017-09-09T01:48:28.352Z,13.8
2017-09-09T01:49:29.739Z,13.8
2017-09-09T01:50:31.526Z,13.8
2017-09-09T01:51:32.951Z,13.8
2017-09-09T01:52:34.655Z,13.7
2017-09-09T01:53:36.092Z,13.7
2017-09-09T01:54:37.562Z,13.7
2017-09-09T01:55:38.994Z,13.7
2017-09-09T01:56:40.422Z,13.7
2017-09-09T01:57:41.849Z,13.7
2017-09-09T01:58:43.351Z,13.7
2017-09-09T01:59:44.767Z,13.7
2017-09-09T02:00:46.502Z,13.7
2017-09-09T02:01:48.015Z,13.7
2017-09-09T02:02:49.717Z,13.7
2017-09-09T02:03:51.148Z,13.7
2017-09-09T02:04:52.879Z,13.6
2017-09-09T02:05:54.318Z,13.6
2017-09-09T02:06:55.713Z,13.6
2017-09-09T02:07:57.125Z,13.5
2017-09-09T02:08:58.651Z,13.6
2017-09-09T02:10:00.105Z,13.6
2017-09-09T02:11:01.836Z,13.5
2017-09-09T02:12:03.253Z,13.5
2017-09-09T02:13:04.708Z,13.5
2017-09-09T02:14:06.125Z,13.5
2017-09-09T02:15:07.564Z,13.4
2017-09-09T02:16:09.028Z,13.5
2017-09-09T02:17:10.472Z,13.5
2017-09-09T02:18:11.874Z,13.5
2017-09-09T02:19:13.345Z,13.4
2017-09-09T02:20:14.753Z,13.4
2017-09-09T02:21:16.235Z,13.5
2017-09-09T02:22:17.675Z,13.4
2017-09-09T02:23:19.397Z,13.5
2017-09-09T02:24:20.826Z,13.5
2017-09-09T02:25:22.278Z,13.5
2017-09-09T02:26:23.693Z,13.4
2017-09-09T02:27:25.175Z,13.4
2017-09-09T02:28:26.646Z,13.4
2017-09-09T02:29:28.363Z,13.5
2017-09-09T02:30:29.794Z,13.4
2017-09-09T02:31:31.289Z,13.3
2017-09-09T02:32:32.730Z,13.4
2017-09-09T02:33:34.409Z,13.3
2017-09-09T02:34:35.809Z,13.3
2017-09-09T02:35:37.295Z,13.4
2017-09-09T02:36:38.736Z,13.3
2017-09-09T02:37:40.199Z,13.3
2017-09-09T02:38:41.647Z,13.3
2017-09-09T02:39:43.360Z,13.3
2017-09-09T02:40:44.798Z,13.3
2017-09-09T02:41:46.234Z,13.3
2017-09-09T02:42:47.692Z,13.3
2017-09-09T02:43:49.102Z,13.3
2017-09-09T02:44:50.579Z,13.3
2017-09-09T02:45:52.000Z,13.2
2017-09-09T02:46:53.432Z,13.2
2017-09-09T02:47:54.893Z,13.3
2017-09-09T02:48:56.317Z,13.2
2017-09-09T02:49:57.817Z,13.2
2017-09-09T02:50:59.240Z,13.2
2017-09-09T02:52:00.961Z,13.2
2017-09-09T02:53:02.377Z,13.1
2017-09-09T02:54:03.896Z,13.1
2017-09-09T02:55:05.336Z,13.1
2017-09-09T02:56:07.026Z,13.1
2017-09-09T02:57:08.436Z,13.1
2017-09-09T02:58:09.926Z,13.2
2017-09-09T02:59:11.353Z,13.2
2017-09-09T03:00:12.842Z,13.2
2017-09-09T03:01:14.264Z,13.1
2017-09-09T03:02:15.956Z,13.2
2017-09-09T03:03:17.394Z,13.1
2017-09-09T03:04:18.872Z,13.1
2017-09-09T03:05:20.327Z,13.1
2017-09-09T03:06:22.030Z,13.1
2017-09-09T03:07:23.452Z,13.1
2017-09-09T03:08:24.920Z,13.1
2017-09-09T03:09:26.355Z,13.1
2017-09-09T03:10:27.795Z,13.1
2017-09-09T03:11:29.230Z,13.1
2017-09-09T03:12:30.711Z,13.1
2017-09-09T03:13:32.141Z,13.1
2017-09-09T03:14:33.911Z,13.2
2017-09-09T03:15:35.371Z,13.0
2017-09-09T03:16:37.090Z,13.2
2017-09-09T03:17:38.483Z,13.1
2017-09-09T03:18:39.952Z,13.1
2017-09-09T03:19:41.372Z,13.1
2017-09-09T03:20:42.805Z,13.0
2017-09-09T03:21:44.282Z,13.1
2017-09-09T03:22:46.029Z,13.0
2017-09-09T03:23:47.471Z,13.0
2017-09-09T03:24:49.233Z,13.1
2017-09-09T03:25:50.680Z,13.1
2017-09-09T03:26:52.408Z,13.1
2017-09-09T03:27:53.865Z,13.1
2017-09-09T03:28:55.562Z,13.1
2017-09-09T03:29:57.000Z,13.2
2017-09-09T03:30:58.451Z,13.0
2017-09-09T03:31:59.888Z,13.0
2017-09-09T03:33:01.339Z,13.1
2017-09-09T03:34:02.778Z,13.1
2017-09-09T03:35:04.238Z,13.1
2017-09-09T03:36:05.669Z,13.1
2017-09-09T03:37:07.409Z,13.1
2017-09-09T03:38:08.849Z,13.0
2017-09-09T03:39:10.291Z,13.1
2017-09-09T03:40:11.720Z,13.0
2017-09-09T03:41:13.181Z,13.1
2017-09-09T03:42:14.650Z,13.1
2017-09-09T03:43:16.357Z,13.1
2017-09-09T03:44:17.794Z,13.2
2017-09-09T03:45:19.257Z,13.0
2017-09-09T03:46:20.671Z,13.1
2017-09-09T03:47:22.117Z,13.1
2017-09-09T03:48:23.572Z,13.0
2017-09-09T03:49:25.294Z,13.2
2017-09-09T03:50:26.716Z,13.1
2017-09-09T03:51:28.185Z,13.1
2017-09-09T03:52:29.618Z,13.0
2017-09-09T03:53:31.362Z,13.1
2017-09-09T03:54:32.805Z,13.0
2017-09-09T03:55:34.266Z,13.1
2017-09-09T03:56:35.697Z,13.1
2017-09-09T03:57:37.143Z,13.1
2017-09-09T03:58:38.590Z,13.1
2017-09-09T03:59:40.311Z,13.1
2017-09-09T04:00:41.720Z,13.1
2017-09-09T04:01:43.230Z,13.2
2017-09-09T04:02:44.668Z,13.1
2017-09-09T04:03:46.396Z,13.1
2017-09-09T04:04:47.820Z,13.1
2017-09-09T04:05:49.603Z,13.1
2017-09-09T04:06:51.010Z,13.1
2017-09-09T04:07:52.475Z,13.2
2017-09-09T04:08:53.897Z,13.2
2017-09-09T04:09:55.345Z,13.2
2017-09-09T04:10:56.821Z,13.2
2017-09-09T04:11:58.514Z,13.1
2017-09-09T04:12:59.947Z,13.1
2017-09-09T04:14:01.402Z,13.2
2017-09-09T04:15:02.883Z,13.2
2017-09-09T04:16:04.609Z,13.2
2017-09-09T04:17:06.016Z,13.2
2017-09-09T04:18:07.480Z,13.2
2017-09-09T04:19:08.923Z,13.2
2017-09-09T04:20:10.665Z,13.2
2017-09-09T04:21:12.074Z,13.2
2017-09-09T04:22:13.535Z,13.1
2017-09-09T04:23:14.968Z,13.3
2017-09-09T04:24:16.467Z,13.1
2017-09-09T04:25:17.885Z,13.2
2017-09-09T04:26:19.612Z,13.2
2017-09-09T04:27:21.065Z,13.2
2017-09-09T04:28:22.497Z,13.2
2017-09-09T04:29:23.911Z,13.3
2017-09-09T04:30:25.358Z,13.1
2017-09-09T04:31:26.790Z,13.3
2017-09-09T04:32:28.261Z,13.2
2017-09-09T04:33:29.691Z,13.2
2017-09-09T04:34:31.118Z,13.2
2017-09-09T04:35:32.522Z,13.2
2017-09-09T04:36:34.033Z,13.2
2017-09-09T04:37:35.467Z,13.2
2017-09-09T04:38:37.169Z,13.2
2017-09-09T04:39:38.593Z,13.2
2017-09-09T04:40:40.094Z,13.3
2017-09-09T04:41:41.504Z,13.3
2017-09-09T04:42:43.002Z,13.2
2017-09-09T04:43:44.497Z,13.3
2017-09-09T04:44:46.144Z,13.3
2017-09-09T04:45:47.598Z,13.2
2017-09-09T04:46:49.334Z,13.3
2017-09-09T04:47:50.736Z,13.2
2017-09-09T04:48:52.227Z,13.2
2017-09-09T04:49:53.649Z,13.3
2017-09-09T04:50:55.228Z,13.3
2017-09-09T04:51:56.638Z,13.3
2017-09-09T04:52:58.307Z,13.3
2017-09-09T04:54:00.101Z,13.3
2017-09-09T04:55:01.866Z,13.3
2017-09-09T04:56:03.292Z,13.3
2017-09-09T04:57:04.954Z,13.3
2017-09-09T04:58:06.369Z,13.3
2017-09-09T04:59:07.839Z,13.3
2017-09-09T05:00:09.283Z,13.3
2017-09-09T05:01:10.787Z,13.3
2017-09-09T05:02:12.219Z,13.3
2017-09-09T05:03:13.901Z,13.4
2017-09-09T05:04:15.358Z,13.3
2017-09-09T05:05:16.806Z,13.4
2017-09-09T05:06:18.217Z,13.3
2017-09-09T05:07:19.667Z,13.4
2017-09-09T05:08:21.105Z,13.4
2017-09-09T05:09:22.546Z,13.4
2017-09-09T05:10:24.028Z,13.4
2017-09-09T05:11:25.753Z,13.4
2017-09-09T05:12:27.227Z,13.4
2017-09-09T05:13:28.974Z,13.4
2017-09-09T05:14:30.435Z,13.4
2017-09-09T05:15:32.086Z,13.4
2017-09-09T05:16:33.486Z,13.4
2017-09-09T05:17:35.012Z,13.4
2017-09-09T05:18:36.443Z,13.5
2017-09-09T05:19:38.161Z,13.5
2017-09-09T05:20:39.584Z,13.4
2017-09-09T05:21:41.062Z,13.4
2017-09-09T05:22:42.488Z,13.4
2017-09-09T05:23:43.948Z,13.5
2017-09-09T05:24:45.385Z,13.4
2017-09-09T05:25:47.118Z,13.4
2017-09-09T05:26:48.539Z,13.5
2017-09-09T05:27:50.037Z,13.4
2017-09-09T05:28:51.458Z,13.4
2017-09-09T05:29:53.210Z,13.4
2017-09-09T05:30:54.665Z,13.4
2017-09-09T05:31:56.430Z,13.4
2017-09-09T05:32:57.846Z,13.4
2017-09-09T05:33:59.608Z,13.4
2017-09-09T05:35:01.039Z,13.5
2017-09-09T05:36:02.757Z,13.5
2017-09-09T05:37:04.168Z,13.5
2017-09-09T05:38:05.699Z,13.4
2017-09-09T05:39:07.142Z,13.5
2017-09-09T05:40:08.835Z,13.5
2017-09-09T05:41:10.270Z,13.5
2017-09-09T05:42:11.742Z,13.5
2017-09-09T05:43:13.213Z,13.5
2017-09-09T05:44:14.900Z,13.5
2017-09-09T05:45:16.324Z,13.5
2017-09-09T05:46:17.786Z,13.5
2017-09-09T05:47:19.204Z,13.5
2017-09-09T05:48:20.681Z,13.5
2017-09-09T05:49:22.109Z,13.5
2017-09-09T05:50:23.544Z,13.5
2017-09-09T05:51:25.010Z,13.5
2017-09-09T05:52:26.727Z,13.5
2017-09-09T05:53:28.158Z,13.5
2017-09-09T05:54:29.653Z,13.5
2017-09-09T05:55:31.080Z,13.5
2017-09-09T05:56:32.869Z,13.4
2017-09-09T05:57:34.278Z,13.4
2017-09-09T05:58:36.006Z,13.5
2017-09-09T05:59:37.425Z,13.5
2017-09-09T06:00:39.160Z,13.5
2017-09-09T06:01:40.568Z,13.5
2017-09-09T06:02:42.049Z,13.5
2017-09-09T06:03:43.488Z,13.5
2017-09-09T06:04:44.910Z,13.5
2017-09-09T06:05:46.337Z,13.4
2017-09-09T06:06:47.832Z,13.5
2017-09-09T06:07:49.281Z,13.5
2017-09-09T06:08:51.062Z,13.5
2017-09-09T06:09:52.459Z,13.4
2017-09-09T06:10:54.190Z,13.5
2017-09-09T06:11:55.631Z,13.5
2017-09-09T06:12:57.351Z,13.5
2017-09-09T06:13:58.744Z,13.5
2017-09-09T06:15:00.285Z,13.6
2017-09-09T06:16:01.820Z,13.5
2017-09-09T06:17:03.446Z,13.6
2017-09-09T06:18:04.898Z,13.5
2017-09-09T06:19:06.666Z,13.5
2017-09-09T06:20:08.088Z,13.5
2017-09-09T06:21:09.848Z,13.4
2017-09-09T06:22:11.287Z,13.5
2017-09-09T06:23:13.007Z,13.5
2017-09-09T06:24:14.451Z,13.5
2017-09-09T06:25:16.194Z,13.5
2017-09-09T06:26:17.605Z,13.5
2017-09-09T06:27:19.055Z,13.5
2017-09-09T06:28:20.471Z,13.5
2017-09-09T06:29:21.976Z,13.6
2017-09-09T06:30:23.423Z,13.6
2017-09-09T06:31:25.177Z,13.5
2017-09-09T06:32:26.600Z,13.6
2017-09-09T06:33:28.395Z,13.5
2017-09-09T06:34:29.877Z,13.5
2017-09-09T06:35:31.513Z,13.5
2017-09-09T06:36:33.029Z,13.5
2017-09-09T06:37:34.714Z,13.5
2017-09-09T06:38:36.158Z,13.5
2017-09-09T06:39:37.892Z,13.5
2017-09-09T06:40:39.309Z,13.6
2017-09-09T06:41:40.838Z,13.5
2017-09-09T06:42:42.278Z,13.4
2017-09-09T06:43:44.009Z,13.5
2017-09-09T06:44:45.466Z,13.5
2017-09-09T06:45:47.154Z,13.5
2017-09-09T06:46:48.644Z,13.5
2017-09-09T06:47:50.349Z,13.6
2017-09-09T06:48:51.794Z,13.6
2017-09-09T06:49:53.550Z,13.5
2017-09-09T06:50:54.997Z,13.6
2017-09-09T06:51:56.763Z,13.7
2017-09-09T06:52:58.229Z,13.6
2017-09-09T06:53:59.923Z,13.6
2017-09-09T06:55:01.363Z,13.7
2017-09-09T06:56:03.100Z,13.7
2017-09-09T06:57:04.508Z,13.7
2017-09-09T06:58:05.948Z,13.7
2017-09-09T06:59:07.376Z,13.7
2017-09-09T07:00:08.870Z,13.7
2017-09-09T07:01:10.300Z,13.7
2017-09-09T07:02:12.046Z,13.7
2017-09-09T07:03:13.468Z,13.7
2017-09-09T07:04:14.918Z,13.8
2017-09-09T07:05:16.332Z,13.8
2017-09-09T07:06:17.805Z,13.8
2017-09-09T07:07:19.254Z,13.7
2017-09-09T07:08:20.963Z,13.7
2017-09-09T07:09:22.406Z,13.8
2017-09-09T07:10:23.846Z,13.8
2017-09-09T07:11:25.273Z,13.8
2017-09-09T07:12:26.879Z,13.8
2017-09-09T07:13:28.307Z,13.8
2017-09-09T07:14:29.913Z,13.8
2017-09-09T07:15:31.335Z,13.8
2017-09-09T07:16:32.836Z,13.7
2017-09-09T07:17:34.250Z,13.8
2017-09-09T07:18:35.700Z,13.7
2017-09-09T07:19:37.143Z,13.9
2017-09-09T07:20:38.881Z,13.9
2017-09-09T07:21:40.298Z,13.9
2017-09-09T07:22:41.805Z,13.8
2017-09-09T07:23:43.234Z,13.9
2017-09-09T07:24:44.961Z,13.9
2017-09-09T07:25:46.437Z,13.8
2017-09-09T07:26:48.160Z,13.9
2017-09-09T07:27:49.643Z,13.9
2017-09-09T07:28:51.360Z,14.0
2017-09-09T07:29:52.823Z,14.0
2017-09-09T07:30:54.515Z,14.0
2017-09-09T07:31:55.941Z,14.1
2017-09-09T07:32:57.384Z,14.1
2017-09-09T07:33:58.832Z,14.0
2017-09-09T07:35:00.577Z,14.0
2017-09-09T07:36:02.037Z,14.0
2017-09-09T07:37:03.814Z,14.1
2017-09-09T07:38:05.254Z,14.1
2017-09-09T07:39:06.977Z,14.1
2017-09-09T07:40:08.407Z,14.2
2017-09-09T07:41:10.154Z,14.1
2017-09-09T07:42:11.575Z,14.1
2017-09-09T07:43:13.073Z,14.1
2017-09-09T07:44:14.525Z,14.1
2017-09-09T07:45:16.231Z,14.1
2017-09-09T07:46:17.731Z,14.2
2017-09-09T07:47:19.424Z,14.2
2017-09-09T07:48:20.913Z,14.2
2017-09-09T07:49:24.835Z,14.1
2017-09-09T07:50:26.257Z,14.2
2017-09-09T07:51:28.005Z,14.3
2017-09-09T07:52:29.464Z,14.3
2017-09-09T07:53:31.145Z,14.3
2017-09-09T07:54:32.601Z,14.3
2017-09-09T07:55:34.313Z,14.3
2017-09-09T07:56:35.722Z,14.3
2017-09-09T07:57:37.214Z,14.2
2017-09-09T07:58:38.680Z,14.3
2017-09-09T07:59:40.432Z,14.3
2017-09-09T08:00:41.840Z,14.3
2017-09-09T08:01:43.555Z,14.3
2017-09-09T08:02:45.013Z,14.4
2017-09-09T08:03:46.785Z,14.4
2017-09-09T08:04:48.199Z,14.3
2017-09-09T08:05:50.936Z,14.4
2017-09-09T08:06:52.361Z,14.5
2017-09-09T08:07:54.037Z,14.5
2017-09-09T08:08:55.489Z,14.3
2017-09-09T08:09:57.239Z,14.4
2017-09-09T08:10:58.678Z,14.5
2017-09-09T08:12:00.431Z,14.5
2017-09-09T08:13:01.873Z,14.5
2017-09-09T08:14:03.628Z,14.5
2017-09-09T08:15:05.054Z,14.6
2017-09-09T08:16:06.835Z,14.6
2017-09-09T08:17:08.237Z,14.8
2017-09-09T08:18:10.004Z,14.8
2017-09-09T08:19:11.444Z,14.9
2017-09-09T08:20:13.153Z,14.9
2017-09-09T08:21:14.580Z,14.9
2017-09-09T08:22:16.091Z,14.9
2017-09-09T08:23:17.523Z,15.0
2017-09-09T08:24:19.243Z,15.0
2017-09-09T08:25:20.719Z,15.1
2017-09-09T08:26:22.414Z,15.1
2017-09-09T08:27:23.886Z,15.3
2017-09-09T08:28:25.633Z,15.3
2017-09-09T08:29:27.114Z,15.4
2017-09-09T08:30:28.774Z,15.4
2017-09-09T08:31:30.186Z,15.4
2017-09-09T08:32:31.675Z,15.4
2017-09-09T08:33:33.080Z,15.4
2017-09-09T08:34:34.519Z,15.5
2017-09-09T08:35:35.965Z,15.4
2017-09-09T08:36:37.431Z,15.4
2017-09-09T08:37:38.842Z,15.5
2017-09-09T08:38:40.344Z,15.6
2017-09-09T08:39:41.802Z,15.6
2017-09-09T08:40:43.479Z,15.7
2017-09-09T08:41:44.902Z,15.7
2017-09-09T08:42:46.371Z,15.7
2017-09-09T08:43:47.849Z,15.6
2017-09-09T08:44:49.556Z,15.6
2017-09-09T08:45:51.064Z,15.5
2017-09-09T08:46:52.709Z,15.5
2017-09-09T08:47:54.173Z,15.6
2017-09-09T08:48:55.614Z,15.6
2017-09-09T08:49:57.053Z,15.5
2017-09-09T08:50:58.600Z,15.6
2017-09-09T08:52:00.075Z,15.6
2017-09-09T08:53:01.706Z,15.6
2017-09-09T08:54:03.152Z,15.7
2017-09-09T08:55:04.894Z,15.7
2017-09-09T08:56:06.331Z,15.7
2017-09-09T08:57:07.822Z,15.8
2017-09-09T08:58:09.240Z,15.9
2017-09-09T08:59:10.917Z,15.9
2017-09-09T09:00:12.405Z,15.8
2017-09-09T09:01:14.137Z,15.9
2017-09-09T09:02:15.561Z,16.0
2017-09-09T09:03:17.023Z,15.9
2017-09-09T09:04:18.452Z,16.0
2017-09-09T09:05:19.895Z,15.9
2017-09-09T09:06:21.340Z,15.9
2017-09-09T09:07:22.843Z,15.8
2017-09-09T09:08:24.266Z,15.7
2017-09-09T09:09:25.984Z,15.8
2017-09-09T09:10:27.424Z,15.8
2017-09-09T09:11:29.175Z,15.9
2017-09-09T09:12:30.574Z,15.8
2017-09-09T09:13:32.049Z,15.9
2017-09-09T09:14:33.521Z,15.8
2017-09-09T09:15:35.217Z,15.9
2017-09-09T09:16:36.797Z,15.9
2017-09-09T09:17:38.434Z,15.9
2017-09-09T09:18:39.893Z,15.9
2017-09-09T09:19:41.665Z,16.0
2017-09-09T09:20:43.108Z,16.0
2017-09-09T09:21:44.962Z,16.0
2017-09-09T09:22:46.379Z,16.0
2017-09-09T09:23:48.018Z,16.0
2017-09-09T09:24:49.442Z,16.2
2017-09-09T09:25:51.187Z,16.2
2017-09-09T09:26:52.652Z,16.4
2017-09-09T09:27:54.427Z,16.5
2017-09-09T09:28:55.907Z,16.5
2017-09-09T09:29:57.546Z,16.5
2017-09-09T09:30:58.981Z,16.4
2017-09-09T09:32:00.454Z,16.4
2017-09-09T09:33:01.903Z,16.4
2017-09-09T09:34:03.660Z,16.5
2017-09-09T09:35:05.071Z,16.5
2017-09-09T09:36:06.809Z,16.7
2017-09-09T09:37:08.299Z,16.8
2017-09-09T09:38:10.014Z,17.1
2017-09-09T09:39:11.435Z,17.1
2017-09-09T09:40:13.214Z,17.2
2017-09-09T09:41:14.664Z,17.2
2017-09-09T09:42:16.352Z,17.3
2017-09-09T09:43:17.738Z,17.3
2017-09-09T09:44:19.143Z,17.4
2017-09-09T09:45:20.530Z,17.4
2017-09-09T09:46:21.992Z,17.4
2017-09-09T09:47:23.463Z,17.3
2017-09-09T09:48:24.884Z,17.3
2017-09-09T09:49:26.293Z,17.3
2017-09-09T09:50:27.737Z,17.3
2017-09-09T09:51:29.185Z,17.3
2017-09-09T09:52:30.607Z,17.2
2017-09-09T09:53:32.058Z,17.2
2017-09-09T09:54:33.477Z,17.3
2017-09-09T09:55:34.948Z,17.1
2017-09-09T09:56:36.375Z,17.1
2017-09-09T09:57:37.774Z,17.2
2017-09-09T09:58:39.235Z,17.0
2017-09-09T09:59:40.694Z,17.2
2017-09-09T10:00:42.138Z,17.0
2017-09-09T10:01:43.583Z,17.1
2017-09-09T10:02:45.014Z,17.1
2017-09-09T10:03:46.483Z,17.1
2017-09-09T10:04:47.910Z,17.1
2017-09-09T10:05:49.335Z,17.1
2017-09-09T10:06:50.791Z,17.0
2017-09-09T10:07:52.266Z,17.0
2017-09-09T10:08:53.729Z,16.9
2017-09-09T10:09:55.178Z,16.8
2017-09-09T10:10:56.666Z,16.8
2017-09-09T10:11:58.080Z,16.8
2017-09-09T10:12:59.486Z,16.8
2017-09-09T10:14:00.917Z,16.8
2017-09-09T10:15:02.389Z,16.8
2017-09-09T10:16:03.798Z,16.7
2017-09-09T10:17:05.208Z,16.7
2017-09-09T10:18:06.624Z,16.6
2017-09-09T10:19:08.054Z,16.6
2017-09-09T10:20:09.529Z,16.5
2017-09-09T10:21:10.933Z,16.5
2017-09-09T10:22:12.360Z,16.5
2017-09-09T10:23:13.830Z,16.6
2017-09-09T10:24:15.289Z,16.5
2017-09-09T10:25:16.772Z,16.5
2017-09-09T10:26:18.178Z,16.6
2017-09-09T10:27:19.630Z,16.7
2017-09-09T10:28:21.062Z,16.7
2017-09-09T10:29:22.495Z,16.8
2017-09-09T10:30:23.929Z,16.8
2017-09-09T10:31:25.377Z,16.8
2017-09-09T10:32:26.795Z,16.9
2017-09-09T10:33:28.259Z,17.0
2017-09-09T10:34:29.723Z,17.0
2017-09-09T10:35:31.164Z,17.0
2017-09-09T10:36:32.620Z,17.0
2017-09-09T10:37:34.056Z,17.0
2017-09-09T10:38:35.502Z,17.0
2017-09-09T10:39:36.935Z,16.9
2017-09-09T10:40:38.378Z,16.9
2017-09-09T10:41:39.835Z,16.9
2017-09-09T10:42:41.257Z,16.9
2017-09-09T10:43:42.704Z,17.0
2017-09-09T10:44:44.117Z,17.1
2017-09-09T10:45:45.647Z,17.1
2017-09-09T10:46:47.081Z,17.1
2017-09-09T10:47:48.520Z,17.1
2017-09-09T10:48:49.928Z,17.1
2017-09-09T10:49:51.373Z,17.2
2017-09-09T10:50:52.789Z,17.1
2017-09-09T10:51:54.285Z,17.1
2017-09-09T10:52:55.696Z,17.2
2017-09-09T10:53:57.154Z,17.3
2017-09-09T10:54:58.555Z,17.3
2017-09-09T10:56:00.036Z,17.5
2017-09-09T10:57:01.446Z,17.5
2017-09-09T10:58:02.906Z,17.5
2017-09-09T10:59:04.310Z,17.6
2017-09-09T11:00:05.803Z,17.7
2017-09-09T11:01:07.234Z,17.8
2017-09-09T11:02:08.702Z,17.9
2017-09-09T11:03:10.243Z,18.0
2017-09-09T11:04:11.745Z,18.1
2017-09-09T11:05:13.172Z,18.1
2017-09-09T11:06:14.621Z,18.3
2017-09-09T11:07:16.043Z,18.5
2017-09-09T11:08:17.521Z,18.6
2017-09-09T11:09:18.942Z,18.6
2017-09-09T11:10:20.408Z,18.9
2017-09-09T11:11:21.864Z,19.1
2017-09-09T11:12:23.415Z,19.4
2017-09-09T11:13:24.883Z,19.4
2017-09-09T11:14:26.385Z,19.6
2017-09-09T11:15:27.848Z,19.6
2017-09-09T11:16:29.362Z,19.7
2017-09-09T11:17:30.795Z,19.8
2017-09-09T11:18:32.282Z,19.9
2017-09-09T11:19:33.715Z,20.0
2017-09-09T11:20:35.222Z,20.1
2017-09-09T11:21:36.665Z,20.1
2017-09-09T11:22:38.145Z,20.1
2017-09-09T11:23:39.572Z,20.2
2017-09-09T11:24:41.078Z,20.3
2017-09-09T11:25:42.494Z,20.3
2017-09-09T11:26:44.044Z,20.3
2017-09-09T11:27:45.470Z,20.3
2017-09-09T11:28:46.955Z,20.3
2017-09-09T11:29:48.389Z,20.3
2017-09-09T11:30:49.846Z,20.2
2017-09-09T11:31:51.270Z,20.2
2017-09-09T11:32:52.721Z,20.0
2017-09-09T11:33:54.134Z,19.9
2017-09-09T11:34:55.613Z,19.9
2017-09-09T11:35:57.024Z,19.8
2017-09-09T11:36:58.481Z,19.7
2017-09-09T11:37:59.905Z,19.6
2017-09-09T11:39:01.375Z,19.4
2017-09-09T11:40:02.813Z,19.5
2017-09-09T11:41:04.226Z,19.4
2017-09-09T11:42:05.646Z,19.2
2017-09-09T11:43:07.128Z,19.1
2017-09-09T11:44:08.586Z,19.0
2017-09-09T11:45:10.109Z,18.9
2017-09-09T11:46:11.544Z,18.9
2017-09-09T11:47:12.982Z,18.7
2017-09-09T11:48:14.407Z,18.7
2017-09-09T11:49:15.875Z,18.5
2017-09-09T11:50:17.270Z,18.3
2017-09-09T11:51:18.793Z,18.2
2017-09-09T11:52:20.207Z,18.1
2017-09-09T11:53:21.673Z,18.1
2017-09-09T11:54:23.096Z,17.9
2017-09-09T11:55:24.696Z,17.8
2017-09-09T11:56:26.160Z,17.6
2017-09-09T11:57:27.643Z,17.5
2017-09-09T11:58:29.069Z,17.4
2017-09-09T11:59:30.623Z,17.5
2017-09-09T12:00:32.062Z,17.3
2017-09-09T12:01:33.607Z,17.3
2017-09-09T12:02:35.037Z,17.1
2017-09-09T12:03:36.540Z,17.0
2017-09-09T12:04:37.980Z,17.0
2017-09-09T12:05:39.498Z,16.8
2017-09-09T12:06:40.895Z,16.8
2017-09-09T12:07:42.483Z,16.7
2017-09-09T12:08:43.916Z,16.6
2017-09-09T12:09:45.443Z,16.5
2017-09-09T12:10:46.908Z,16.4
2017-09-09T12:11:48.427Z,16.5
2017-09-09T12:12:49.867Z,16.4
2017-09-09T12:13:51.416Z,16.4
2017-09-09T12:14:52.866Z,16.3
2017-09-09T12:15:54.341Z,16.2
2017-09-09T12:16:55.730Z,16.2
2017-09-09T12:17:57.269Z,16.2
2017-09-09T12:18:58.650Z,16.2
2017-09-09T12:20:00.158Z,16.2
2017-09-09T12:21:01.591Z,16.3
2017-09-09T12:22:03.068Z,16.2
2017-09-09T12:23:04.518Z,16.3
2017-09-09T12:24:06.034Z,16.3
2017-09-09T12:25:07.479Z,16.3
2017-09-09T12:26:08.995Z,16.3
2017-09-09T12:27:10.386Z,16.2
2017-09-09T12:28:11.860Z,16.2
2017-09-09T12:29:13.277Z,16.4
2017-09-09T12:30:14.772Z,16.3
2017-09-09T12:31:16.200Z,16.4
2017-09-09T12:32:17.642Z,16.6
2017-09-09T12:33:19.082Z,16.5
2017-09-09T12:34:20.582Z,16.6
2017-09-09T12:35:22.035Z,16.6
2017-09-09T12:36:23.475Z,16.5
2017-09-09T12:37:24.900Z,16.5
2017-09-09T12:38:26.415Z,16.5
2017-09-09T12:39:27.837Z,16.5
2017-09-09T12:40:29.362Z,16.4
2017-09-09T12:41:30.857Z,16.5
2017-09-09T12:42:32.358Z,16.4
2017-09-09T12:43:33.809Z,16.4
2017-09-09T12:44:35.335Z,16.3
2017-09-09T12:45:36.855Z,16.3
2017-09-09T12:46:38.353Z,16.2
2017-09-09T12:47:39.847Z,16.1
2017-09-09T12:48:41.341Z,16.0
2017-09-09T12:49:42.757Z,16.0
2017-09-09T12:50:44.295Z,15.9
2017-09-09T12:51:45.683Z,15.8
2017-09-09T12:52:47.208Z,15.7
2017-09-09T12:53:48.753Z,15.6
2017-09-09T12:54:50.302Z,15.7
2017-09-09T12:55:51.744Z,15.5
2017-09-09T12:56:53.261Z,15.5
2017-09-09T12:57:54.696Z,15.4
2017-09-09T12:58:56.260Z,15.3
2017-09-09T12:59:57.696Z,15.4
2017-09-09T13:00:59.195Z,15.3
2017-09-09T13:02:00.631Z,15.3
2017-09-09T13:03:02.069Z,15.4
2017-09-09T13:04:03.491Z,15.3
2017-09-09T13:05:04.984Z,15.3
2017-09-09T13:06:06.387Z,15.3
2017-09-09T13:07:07.848Z,15.4
2017-09-09T13:08:09.250Z,15.4
2017-09-09T13:09:10.724Z,15.4
2017-09-09T13:10:12.148Z,15.4
2017-09-09T13:11:13.619Z,15.4
2017-09-09T13:12:15.045Z,15.5
2017-09-09T13:13:16.523Z,15.4
2017-09-09T13:14:17.971Z,15.4
2017-09-09T13:15:19.482Z,15.4
2017-09-09T13:16:20.883Z,15.4
2017-09-09T13:17:22.372Z,15.4
2017-09-09T13:18:23.786Z,15.4
2017-09-09T13:19:25.255Z,15.6
2017-09-09T13:20:26.675Z,15.6
2017-09-09T13:21:28.130Z,15.6
2017-09-09T13:22:29.933Z,15.7
2017-09-09T13:23:31.445Z,15.7
2017-09-09T13:24:32.990Z,15.8
2017-09-09T13:25:34.524Z,15.8
2017-09-09T13:26:35.960Z,15.9
2017-09-09T13:27:37.492Z,15.9
2017-09-09T13:28:38.945Z,15.9
2017-09-09T13:29:40.498Z,16.2
2017-09-09T13:30:41.902Z,16.4
2017-09-09T13:31:43.382Z,16.5
2017-09-09T13:32:44.787Z,16.8
2017-09-09T13:33:46.264Z,17.0
2017-09-09T13:34:47.734Z,17.0
2017-09-09T13:35:49.257Z,17.1
2017-09-09T13:36:50.729Z,17.2
2017-09-09T13:37:52.240Z,17.3
2017-09-09T13:38:53.738Z,17.5